首页
METAR-TAF:

METAR-TAF

机场 :

Dinwiddie County Airport

彼得斯堡, 弗吉尼亚州, 美国

纬度: 37-11N, 经度: 077-31W, 海拔: 59米

当前天气观测

该预报发布于22分钟前的21:15 UTC
风速11节,风向
温度 8°C
湿度 93%
气压 1010 hPa
能見度: 11.3公里
阴天层高于600英尺
小雨

METAR: KPTB 152115Z AUTO 36011KT 7SM -RA OVC006 08/07 A2983 RMK AO2 T00760065

时间: 16:37 (21:37 UTC)


TAF: 丢失

超过4000个机场的气象观测和天气预报(METAR&TAF报告)。

可查询的气象台以黄色和红色小点在地图上表示。

将鼠标移到小点上方,可查看气象台名称。

然后点击查看天气观测和预报。

如需切换地图:点击带黑十字的绿色按钮放大地图;点击带横线的绿色按钮缩小地图;或者点击绿色箭头查看邻近地区的地图。


METAR-TAF: